Archival Weather

Tokyo Intl

Tokyo, Japan (RJTT)

Report from: Tuesday, September 19, 2023 7:00 PM JST
Current time: Monday, June 17, 2024 7:07 PM JST

Current weather – Weather history – Daily summaries
Weather forecast

Temperature29.0°C (84.2°F)
Heat index33.7°C (92.7°F)
Dew point24.0°C (75.2°F)
Winds 14 kts (7.2 m/s, 16.1 mph) South-Southwest (200°)
Visibility6.2 mi. (10 km)
Clouds Scattered clouds 0 ft. (0 m)
Few clouds 6,000 ft. (1,829 m)
Altimeter29.85 in.Hg (1011 mB)
Relative humidity75 %
Density altitude2,083 ft. (635 m)
Remarks No significant changes expected in the next two hours
Flight conditions Visual Meteorological Conditions
Raw dataRJTT 191000Z 20014KT 9999 FEW060 SCT/// 29/24 Q1011 NOSIG RMK 1SC060 A2988
An error has occurred. This application may no longer respond until reloaded. Reload 🗙